sensor_id;sensor_type;location;lat;lon;timestamp;temperature;humidity
7296;DHT22;40758;54.038;11.684;2022-07-25T00:02:22;19.30;99.90
7296;DHT22;40758;54.038;11.684;2022-07-25T00:04:52;19.30;99.90
7296;DHT22;40758;54.038;11.684;2022-07-25T00:07:24;19.40;99.90
7296;DHT22;40758;54.038;11.684;2022-07-25T00:09:53;19.30;99.90
7296;DHT22;40758;54.038;11.684;2022-07-25T00:12:22;19.30;99.90
7296;DHT22;40758;54.038;11.684;2022-07-25T00:14:52;19.30;99.90
7296;DHT22;40758;54.038;11.684;2022-07-25T00:17:21;19.40;99.90
7296;DHT22;40758;54.038;11.684;2022-07-25T00:19:50;19.30;99.90
7296;DHT22;40758;54.038;11.684;2022-07-25T00:22:19;19.30;99.90
7296;DHT22;40758;54.038;11.684;2022-07-25T00:24:49;19.30;99.90
7296;DHT22;40758;54.038;11.684;2022-07-25T00:27:17;19.30;99.90
7296;DHT22;40758;54.038;11.684;2022-07-25T00:29:47;19.30;99.90
7296;DHT22;40758;54.038;11.684;2022-07-25T00:32:17;19.30;99.90
7296;DHT22;40758;54.038;11.684;2022-07-25T00:34:46;19.10;99.90
7296;DHT22;40758;54.038;11.684;2022-07-25T00:37:15;19.10;99.90
7296;DHT22;40758;54.038;11.684;2022-07-25T00:39:44;19.00;99.90
7296;DHT22;40758;54.038;11.684;2022-07-25T00:42:13;18.90;99.90
7296;DHT22;40758;54.038;11.684;2022-07-25T00:44:42;18.90;99.90
7296;DHT22;40758;54.038;11.684;2022-07-25T00:47:11;18.80;99.90
7296;DHT22;40758;54.038;11.684;2022-07-25T00:49:44;18.90;99.90
7296;DHT22;40758;54.038;11.684;2022-07-25T00:52:17;18.90;99.90
7296;DHT22;40758;54.038;11.684;2022-07-25T00:54:47;18.80;99.90
7296;DHT22;40758;54.038;11.684;2022-07-25T00:57:16;18.80;99.90
7296;DHT22;40758;54.038;11.684;2022-07-25T00:59:45;18.90;99.90
7296;DHT22;40758;54.038;11.684;2022-07-25T01:02:14;18.80;99.90
7296;DHT22;40758;54.038;11.684;2022-07-25T01:04:45;18.90;99.90
7296;DHT22;40758;54.038;11.684;2022-07-25T01:07:15;18.90;99.90
7296;DHT22;40758;54.038;11.684;2022-07-25T01:09:45;18.80;99.90
7296;DHT22;40758;54.038;11.684;2022-07-25T01:12:17;18.70;99.90
7296;DHT22;40758;54.038;11.684;2022-07-25T01:14:46;18.60;99.90
7296;DHT22;40758;54.038;11.684;2022-07-25T01:17:16;18.60;99.90
7296;DHT22;40758;54.038;11.684;2022-07-25T01:19:46;18.60;99.90
7296;DHT22;40758;54.038;11.684;2022-07-25T01:22:18;18.60;99.90
7296;DHT22;40758;54.038;11.684;2022-07-25T01:24:48;18.60;99.90
7296;DHT22;40758;54.038;11.684;2022-07-25T01:27:17;18.60;99.90
7296;DHT22;40758;54.038;11.684;2022-07-25T01:29:46;18.60;99.90
7296;DHT22;40758;54.038;11.684;2022-07-25T01:32:15;18.50;99.90
7296;DHT22;40758;54.038;11.684;2022-07-25T01:34:44;18.60;99.90
7296;DHT22;40758;54.038;11.684;2022-07-25T01:37:13;18.70;99.90
7296;DHT22;40758;54.038;11.684;2022-07-25T01:39:44;18.70;99.90
7296;DHT22;40758;54.038;11.684;2022-07-25T01:42:13;18.70;99.90
7296;DHT22;40758;54.038;11.684;2022-07-25T01:44:42;18.70;99.90
7296;DHT22;40758;54.038;11.684;2022-07-25T01:47:11;18.80;99.90
7296;DHT22;40758;54.038;11.684;2022-07-25T01:49:40;18.80;99.90
7296;DHT22;40758;54.038;11.684;2022-07-25T01:52:09;18.80;99.90
7296;DHT22;40758;54.038;11.684;2022-07-25T01:54:39;18.70;99.90
7296;DHT22;40758;54.038;11.684;2022-07-25T01:57:15;18.70;99.90
7296;DHT22;40758;54.038;11.684;2022-07-25T01:59:44;18.70;99.90
7296;DHT22;40758;54.038;11.684;2022-07-25T02:02:13;18.70;99.90
7296;DHT22;40758;54.038;11.684;2022-07-25T02:04:42;18.70;99.90
7296;DHT22;40758;54.038;11.684;2022-07-25T02:07:11;18.60;99.90
7296;DHT22;40758;54.038;11.684;2022-07-25T02:09:43;18.60;99.90
7296;DHT22;40758;54.038;11.684;2022-07-25T02:12:12;18.60;99.90
7296;DHT22;40758;54.038;11.684;2022-07-25T02:14:42;18.60;99.90
7296;DHT22;40758;54.038;11.684;2022-07-25T02:17:12;18.60;99.90
7296;DHT22;40758;54.038;11.684;2022-07-25T02:19:41;18.50;99.90
7296;DHT22;40758;54.038;11.684;2022-07-25T02:22:10;18.50;99.90
7296;DHT22;40758;54.038;11.684;2022-07-25T02:24:39;18.60;99.90
7296;DHT22;40758;54.038;11.684;2022-07-25T02:27:11;18.70;99.90
7296;DHT22;40758;54.038;11.684;2022-07-25T02:29:41;18.70;99.90
7296;DHT22;40758;54.038;11.684;2022-07-25T02:32:10;18.80;99.90
7296;DHT22;40758;54.038;11.684;2022-07-25T02:34:39;18.80;99.90
7296;DHT22;40758;54.038;11.684;2022-07-25T02:37:08;18.90;99.90
7296;DHT22;40758;54.038;11.684;2022-07-25T02:39:39;18.90;99.90
7296;DHT22;40758;54.038;11.684;2022-07-25T02:42:08;18.90;99.90
7296;DHT22;40758;54.038;11.684;2022-07-25T02:44:37;19.00;99.90
7296;DHT22;40758;54.038;11.684;2022-07-25T02:47:08;19.00;99.90
7296;DHT22;40758;54.038;11.684;2022-07-25T02:49:37;19.10;99.90
7296;DHT22;40758;54.038;11.684;2022-07-25T02:52:07;19.20;99.90
7296;DHT22;40758;54.038;11.684;2022-07-25T02:54:36;19.30;99.90
7296;DHT22;40758;54.038;11.684;2022-07-25T02:57:05;19.40;99.90
7296;DHT22;40758;54.038;11.684;2022-07-25T02:59:38;19.40;99.90
7296;DHT22;40758;54.038;11.684;2022-07-25T03:02:10;19.50;99.90
7296;DHT22;40758;54.038;11.684;2022-07-25T03:04:39;19.60;99.90
7296;DHT22;40758;54.038;11.684;2022-07-25T03:07:12;19.50;99.90
7296;DHT22;40758;54.038;11.684;2022-07-25T03:09:42;19.60;99.90
7296;DHT22;40758;54.038;11.684;2022-07-25T03:12:13;19.60;99.90
7296;DHT22;40758;54.038;11.684;2022-07-25T03:14:42;19.50;99.90
7296;DHT22;40758;54.038;11.684;2022-07-25T03:17:15;19.60;99.90
7296;DHT22;40758;54.038;11.684;2022-07-25T03:19:44;19.60;99.90
7296;DHT22;40758;54.038;11.684;2022-07-25T03:22:14;19.60;99.90
7296;DHT22;40758;54.038;11.684;2022-07-25T03:24:42;19.60;99.90
7296;DHT22;40758;54.038;11.684;2022-07-25T03:27:11;19.70;99.90
7296;DHT22;40758;54.038;11.684;2022-07-25T03:29:44;19.80;99.90
7296;DHT22;40758;54.038;11.684;2022-07-25T03:32:17;19.80;99.90
7296;DHT22;40758;54.038;11.684;2022-07-25T03:34:50;19.80;99.90
7296;DHT22;40758;54.038;11.684;2022-07-25T03:37:19;19.80;99.90
7296;DHT22;40758;54.038;11.684;2022-07-25T03:39:54;19.90;99.90
7296;DHT22;40758;54.038;11.684;2022-07-25T03:42:24;19.90;99.90
7296;DHT22;40758;54.038;11.684;2022-07-25T03:45:00;19.90;99.90
7296;DHT22;40758;54.038;11.684;2022-07-25T03:47:31;19.90;99.90
7296;DHT22;40758;54.038;11.684;2022-07-25T03:50:00;19.90;99.90
7296;DHT22;40758;54.038;11.684;2022-07-25T03:52:30;19.90;99.90
7296;DHT22;40758;54.038;11.684;2022-07-25T03:55:04;19.90;99.90
7296;DHT22;40758;54.038;11.684;2022-07-25T03:57:36;19.90;99.90
7296;DHT22;40758;54.038;11.684;2022-07-25T04:00:08;19.90;99.90
7296;DHT22;40758;54.038;11.684;2022-07-25T04:02:39;19.80;99.90
7296;DHT22;40758;54.038;11.684;2022-07-25T04:05:09;19.80;99.90
7296;DHT22;40758;54.038;11.684;2022-07-25T04:07:38;19.80;99.90
7296;DHT22;40758;54.038;11.684;2022-07-25T04:10:08;19.80;99.90
7296;DHT22;40758;54.038;11.684;2022-07-25T04:12:38;19.80;99.90
7296;DHT22;40758;54.038;11.684;2022-07-25T04:15:08;19.80;99.90
7296;DHT22;40758;54.038;11.684;2022-07-25T04:17:39;19.70;99.90
7296;DHT22;40758;54.038;11.684;2022-07-25T04:20:08;19.80;99.90
7296;DHT22;40758;54.038;11.684;2022-07-25T04:22:37;19.90;99.90
7296;DHT22;40758;54.038;11.684;2022-07-25T04:25:12;20.00;99.90
7296;DHT22;40758;54.038;11.684;2022-07-25T04:27:41;20.00;99.90
7296;DHT22;40758;54.038;11.684;2022-07-25T04:30:11;20.20;99.90
7296;DHT22;40758;54.038;11.684;2022-07-25T04:32:53;20.20;99.90
7296;DHT22;40758;54.038;11.684;2022-07-25T04:35:22;20.30;99.90
7296;DHT22;40758;54.038;11.684;2022-07-25T04:37:52;20.40;99.90
7296;DHT22;40758;54.038;11.684;2022-07-25T04:40:21;20.40;99.90
7296;DHT22;40758;54.038;11.684;2022-07-25T04:42:50;20.40;99.90
7296;DHT22;40758;54.038;11.684;2022-07-25T04:45:19;20.40;99.90
7296;DHT22;40758;54.038;11.684;2022-07-25T04:47:52;20.50;99.90
7296;DHT22;40758;54.038;11.684;2022-07-25T04:50:21;20.50;99.90
7296;DHT22;40758;54.038;11.684;2022-07-25T04:52:51;20.60;99.90
7296;DHT22;40758;54.038;11.684;2022-07-25T04:55:20;20.70;99.90
7296;DHT22;40758;54.038;11.684;2022-07-25T04:57:49;20.80;99.90
7296;DHT22;40758;54.038;11.684;2022-07-25T05:00:18;20.90;99.90
7296;DHT22;40758;54.038;11.684;2022-07-25T05:02:50;21.10;99.90
7296;DHT22;40758;54.038;11.684;2022-07-25T05:05:20;21.20;99.90
7296;DHT22;40758;54.038;11.684;2022-07-25T05:07:50;21.30;99.90
7296;DHT22;40758;54.038;11.684;2022-07-25T05:10:24;21.50;99.90
7296;DHT22;40758;54.038;11.684;2022-07-25T05:12:54;21.60;99.90
7296;DHT22;40758;54.038;11.684;2022-07-25T05:15:25;21.90;99.90
7296;DHT22;40758;54.038;11.684;2022-07-25T05:17:55;22.10;99.90
7296;DHT22;40758;54.038;11.684;2022-07-25T05:20:25;22.20;99.90
7296;DHT22;40758;54.038;11.684;2022-07-25T05:22:54;22.80;99.90
7296;DHT22;40758;54.038;11.684;2022-07-25T05:25:23;24.20;99.90
7296;DHT22;40758;54.038;11.684;2022-07-25T05:27:52;25.70;99.90
7296;DHT22;40758;54.038;11.684;2022-07-25T05:30:26;26.90;99.90
7296;DHT22;40758;54.038;11.684;2022-07-25T05:32:56;27.50;99.90
7296;DHT22;40758;54.038;11.684;2022-07-25T05:35:25;28.20;99.90
7296;DHT22;40758;54.038;11.684;2022-07-25T05:37:55;28.30;99.90
7296;DHT22;40758;54.038;11.684;2022-07-25T05:40:24;28.30;99.90
7296;DHT22;40758;54.038;11.684;2022-07-25T05:42:53;28.60;99.90
7296;DHT22;40758;54.038;11.684;2022-07-25T05:45:28;28.40;99.90
7296;DHT22;40758;54.038;11.684;2022-07-25T05:48:00;27.80;99.90
7296;DHT22;40758;54.038;11.684;2022-07-25T05:50:29;27.00;99.90
7296;DHT22;40758;54.038;11.684;2022-07-25T05:52:58;27.00;99.90
7296;DHT22;40758;54.038;11.684;2022-07-25T05:55:28;27.20;99.90
7296;DHT22;40758;54.038;11.684;2022-07-25T05:57:56;27.60;99.90
7296;DHT22;40758;54.038;11.684;2022-07-25T06:00:28;28.50;99.90
7296;DHT22;40758;54.038;11.684;2022-07-25T06:02:59;29.00;99.90
7296;DHT22;40758;54.038;11.684;2022-07-25T06:05:29;29.00;99.90
7296;DHT22;40758;54.038;11.684;2022-07-25T06:08:00;28.30;99.90
7296;DHT22;40758;54.038;11.684;2022-07-25T06:10:29;28.30;99.90
7296;DHT22;40758;54.038;11.684;2022-07-25T06:12:59;28.40;99.90
7296;DHT22;40758;54.038;11.684;2022-07-25T06:15:33;28.40;99.90
7296;DHT22;40758;54.038;11.684;2022-07-25T06:18:03;27.40;99.90
7296;DHT22;40758;54.038;11.684;2022-07-25T06:20:33;26.80;99.90
7296;DHT22;40758;54.038;11.684;2022-07-25T06:23:02;26.80;99.90
7296;DHT22;40758;54.038;11.684;2022-07-25T06:25:32;27.50;99.90
7296;DHT22;40758;54.038;11.684;2022-07-25T06:28:02;28.60;99.90
7296;DHT22;40758;54.038;11.684;2022-07-25T06:30:36;29.20;99.90
7296;DHT22;40758;54.038;11.684;2022-07-25T06:33:06;29.40;99.90
7296;DHT22;40758;54.038;11.684;2022-07-25T06:35:35;29.60;99.90
7296;DHT22;40758;54.038;11.684;2022-07-25T06:38:06;29.70;99.90
7296;DHT22;40758;54.038;11.684;2022-07-25T06:40:38;29.50;99.90
7296;DHT22;40758;54.038;11.684;2022-07-25T06:43:08;29.30;99.90
7296;DHT22;40758;54.038;11.684;2022-07-25T06:45:37;29.10;99.90
7296;DHT22;40758;54.038;11.684;2022-07-25T06:48:07;29.30;99.90
7296;DHT22;40758;54.038;11.684;2022-07-25T06:50:36;29.00;99.90
7296;DHT22;40758;54.038;11.684;2022-07-25T06:53:05;29.10;99.90
7296;DHT22;40758;54.038;11.684;2022-07-25T06:55:34;29.80;99.90
7296;DHT22;40758;54.038;11.684;2022-07-25T06:58:03;30.70;99.90
7296;DHT22;40758;54.038;11.684;2022-07-25T07:00:32;31.30;99.90
7296;DHT22;40758;54.038;11.684;2022-07-25T07:03:02;31.80;99.90
7296;DHT22;40758;54.038;11.684;2022-07-25T07:05:33;32.30;99.90
7296;DHT22;40758;54.038;11.684;2022-07-25T07:08:04;32.30;99.90
7296;DHT22;40758;54.038;11.684;2022-07-25T07:10:33;31.80;99.90
7296;DHT22;40758;54.038;11.684;2022-07-25T07:13:04;31.80;99.90
7296;DHT22;40758;54.038;11.684;2022-07-25T07:15:36;31.90;99.90
7296;DHT22;40758;54.038;11.684;2022-07-25T07:18:06;32.60;99.90
7296;DHT22;40758;54.038;11.684;2022-07-25T07:20:37;33.30;99.90
7296;DHT22;40758;54.038;11.684;2022-07-25T07:23:07;33.40;99.90
7296;DHT22;40758;54.038;11.684;2022-07-25T07:25:43;33.70;99.90
7296;DHT22;40758;54.038;11.684;2022-07-25T07:28:13;33.90;99.90
7296;DHT22;40758;54.038;11.684;2022-07-25T07:30:43;32.50;99.90
7296;DHT22;40758;54.038;11.684;2022-07-25T07:33:33;32.20;99.90
7296;DHT22;40758;54.038;11.684;2022-07-25T07:36:06;32.70;99.90
7296;DHT22;40758;54.038;11.684;2022-07-25T07:38:37;32.80;99.90
7296;DHT22;40758;54.038;11.684;2022-07-25T07:41:07;32.10;99.90
7296;DHT22;40758;54.038;11.684;2022-07-25T07:43:36;31.90;99.90
7296;DHT22;40758;54.038;11.684;2022-07-25T07:46:06;31.40;99.90
7296;DHT22;40758;54.038;11.684;2022-07-25T07:48:35;30.70;99.90
7296;DHT22;40758;54.038;11.684;2022-07-25T07:51:07;30.60;99.90
7296;DHT22;40758;54.038;11.684;2022-07-25T07:53:36;31.20;99.90
7296;DHT22;40758;54.038;11.684;2022-07-25T07:56:22;32.20;99.90
7296;DHT22;40758;54.038;11.684;2022-07-25T07:58:51;34.10;99.90
7296;DHT22;40758;54.038;11.684;2022-07-25T08:01:24;35.00;99.90
7296;DHT22;40758;54.038;11.684;2022-07-25T08:03:53;35.10;99.90
7296;DHT22;40758;54.038;11.684;2022-07-25T08:06:24;34.80;99.90
7296;DHT22;40758;54.038;11.684;2022-07-25T08:08:54;33.90;99.90
7296;DHT22;40758;54.038;11.684;2022-07-25T08:11:23;33.60;99.90
7296;DHT22;40758;54.038;11.684;2022-07-25T08:13:55;34.00;99.90
7296;DHT22;40758;54.038;11.684;2022-07-25T08:16:24;34.00;99.90
7296;DHT22;40758;54.038;11.684;2022-07-25T08:18:54;34.20;99.90
7296;DHT22;40758;54.038;11.684;2022-07-25T08:21:24;35.00;99.90
7296;DHT22;40758;54.038;11.684;2022-07-25T08:23:54;35.60;99.90
7296;DHT22;40758;54.038;11.684;2022-07-25T08:26:23;35.80;99.90
7296;DHT22;40758;54.038;11.684;2022-07-25T08:28:54;35.20;99.90
7296;DHT22;40758;54.038;11.684;2022-07-25T08:31:43;34.50;99.90
7296;DHT22;40758;54.038;11.684;2022-07-25T08:34:13;34.60;99.90
7296;DHT22;40758;54.038;11.684;2022-07-25T08:36:43;35.20;99.90
7296;DHT22;40758;54.038;11.684;2022-07-25T08:39:13;34.90;99.90
7296;DHT22;40758;54.038;11.684;2022-07-25T08:41:45;34.70;99.90
7296;DHT22;40758;54.038;11.684;2022-07-25T08:44:16;34.10;99.90
7296;DHT22;40758;54.038;11.684;2022-07-25T08:46:47;33.50;99.90
7296;DHT22;40758;54.038;11.684;2022-07-25T08:49:18;33.90;99.90
7296;DHT22;40758;54.038;11.684;2022-07-25T08:51:59;34.00;99.90
7296;DHT22;40758;54.038;11.684;2022-07-25T08:54:34;34.60;99.90
7296;DHT22;40758;54.038;11.684;2022-07-25T08:57:03;35.00;99.90
7296;DHT22;40758;54.038;11.684;2022-07-25T08:59:33;35.70;99.90
7296;DHT22;40758;54.038;11.684;2022-07-25T09:02:02;36.20;99.90
7296;DHT22;40758;54.038;11.684;2022-07-25T09:04:34;36.30;99.90
7296;DHT22;40758;54.038;11.684;2022-07-25T09:07:08;36.40;99.90
7296;DHT22;40758;54.038;11.684;2022-07-25T09:09:38;37.40;99.90
7296;DHT22;40758;54.038;11.684;2022-07-25T09:12:07;37.70;99.90
7296;DHT22;40758;54.038;11.684;2022-07-25T09:14:41;37.10;99.90
7296;DHT22;40758;54.038;11.684;2022-07-25T09:17:11;37.20;99.90
7296;DHT22;40758;54.038;11.684;2022-07-25T09:19:53;37.70;99.90
7296;DHT22;40758;54.038;11.684;2022-07-25T09:22:27;37.10;99.90
7296;DHT22;40758;54.038;11.684;2022-07-25T09:24:57;36.80;99.90
7296;DHT22;40758;54.038;11.684;2022-07-25T09:27:32;36.80;99.90
7296;DHT22;40758;54.038;11.684;2022-07-25T09:30:11;37.80;99.90
7296;DHT22;40758;54.038;11.684;2022-07-25T09:32:41;37.70;99.90
7296;DHT22;40758;54.038;11.684;2022-07-25T09:35:11;36.60;99.90
7296;DHT22;40758;54.038;11.684;2022-07-25T09:37:41;36.10;99.90
7296;DHT22;40758;54.038;11.684;2022-07-25T09:40:12;35.40;99.90
7296;DHT22;40758;54.038;11.684;2022-07-25T09:42:49;36.50;99.90
7296;DHT22;40758;54.038;11.684;2022-07-25T09:45:18;36.80;99.90
7296;DHT22;40758;54.038;11.684;2022-07-25T09:47:50;37.50;99.90
7296;DHT22;40758;54.038;11.684;2022-07-25T09:50:22;37.30;99.90
7296;DHT22;40758;54.038;11.684;2022-07-25T09:52:58;37.20;99.90
7296;DHT22;40758;54.038;11.684;2022-07-25T09:55:29;36.80;99.90
7296;DHT22;40758;54.038;11.684;2022-07-25T09:57:59;36.90;99.90
7296;DHT22;40758;54.038;11.684;2022-07-25T10:00:31;36.70;99.90
7296;DHT22;40758;54.038;11.684;2022-07-25T10:03:16;35.70;99.90
7296;DHT22;40758;54.038;11.684;2022-07-25T10:06:12;35.30;99.90
7296;DHT22;40758;54.038;11.684;2022-07-25T10:08:50;35.00;99.90
7296;DHT22;40758;54.038;11.684;2022-07-25T10:11:22;34.60;99.90
7296;DHT22;40758;54.038;11.684;2022-07-25T10:14:08;35.00;99.90
7296;DHT22;40758;54.038;11.684;2022-07-25T10:16:44;35.60;99.90
7296;DHT22;40758;54.038;11.684;2022-07-25T10:19:14;36.50;99.90
7296;DHT22;40758;54.038;11.684;2022-07-25T10:21:53;36.70;99.90
7296;DHT22;40758;54.038;11.684;2022-07-25T10:24:32;35.90;99.90
7296;DHT22;40758;54.038;11.684;2022-07-25T10:27:07;35.80;99.90
7296;DHT22;40758;54.038;11.684;2022-07-25T10:29:38;36.00;99.90
7296;DHT22;40758;54.038;11.684;2022-07-25T10:32:10;35.80;99.90
7296;DHT22;40758;54.038;11.684;2022-07-25T10:34:50;35.70;99.90
7296;DHT22;40758;54.038;11.684;2022-07-25T10:37:26;35.60;99.90
7296;DHT22;40758;54.038;11.684;2022-07-25T10:40:00;35.90;99.90
7296;DHT22;40758;54.038;11.684;2022-07-25T10:42:32;36.30;99.90
7296;DHT22;40758;54.038;11.684;2022-07-25T10:45:01;36.00;99.90
7296;DHT22;40758;54.038;11.684;2022-07-25T10:47:39;35.70;99.90
7296;DHT22;40758;54.038;11.684;2022-07-25T10:50:22;35.30;99.90
7296;DHT22;40758;54.038;11.684;2022-07-25T10:53:12;35.70;99.90
7296;DHT22;40758;54.038;11.684;2022-07-25T10:55:42;36.20;99.90
7296;DHT22;40758;54.038;11.684;2022-07-25T10:58:48;36.10;99.90
7296;DHT22;40758;54.038;11.684;2022-07-25T11:01:21;35.80;99.90
7296;DHT22;40758;54.038;11.684;2022-07-25T11:03:59;35.70;99.90
7296;DHT22;40758;54.038;11.684;2022-07-25T11:06:31;35.80;99.90
7296;DHT22;40758;54.038;11.684;2022-07-25T11:09:02;35.70;99.90
7296;DHT22;40758;54.038;11.684;2022-07-25T11:11:47;35.80;99.90
7296;DHT22;40758;54.038;11.684;2022-07-25T11:14:19;35.40;99.90
7296;DHT22;40758;54.038;11.684;2022-07-25T11:16:51;35.20;99.90
7296;DHT22;40758;54.038;11.684;2022-07-25T11:19:24;35.20;99.90
7296;DHT22;40758;54.038;11.684;2022-07-25T11:21:56;34.20;99.90
7296;DHT22;40758;54.038;11.684;2022-07-25T11:24:33;33.60;99.90
7296;DHT22;40758;54.038;11.684;2022-07-25T11:27:06;33.60;99.90
7296;DHT22;40758;54.038;11.684;2022-07-25T11:29:39;33.50;99.90
7296;DHT22;40758;54.038;11.684;2022-07-25T11:32:10;33.60;99.90
7296;DHT22;40758;54.038;11.684;2022-07-25T11:34:42;33.50;99.90
7296;DHT22;40758;54.038;11.684;2022-07-25T11:37:14;33.30;99.90
7296;DHT22;40758;54.038;11.684;2022-07-25T11:39:45;33.30;99.90
7296;DHT22;40758;54.038;11.684;2022-07-25T11:42:20;33.40;99.90
7296;DHT22;40758;54.038;11.684;2022-07-25T11:44:51;33.10;99.90
7296;DHT22;40758;54.038;11.684;2022-07-25T11:47:26;33.10;99.90
7296;DHT22;40758;54.038;11.684;2022-07-25T11:49:58;33.10;99.90
7296;DHT22;40758;54.038;11.684;2022-07-25T11:52:33;33.50;99.90
7296;DHT22;40758;54.038;11.684;2022-07-25T11:55:05;33.80;99.90
7296;DHT22;40758;54.038;11.684;2022-07-25T11:57:39;34.30;99.90
7296;DHT22;40758;54.038;11.684;2022-07-25T12:00:16;34.20;99.90
7296;DHT22;40758;54.038;11.684;2022-07-25T12:02:47;34.10;99.90
7296;DHT22;40758;54.038;11.684;2022-07-25T12:05:19;34.00;99.90
7296;DHT22;40758;54.038;11.684;2022-07-25T12:07:50;34.10;99.90
7296;DHT22;40758;54.038;11.684;2022-07-25T12:10:23;34.10;99.90
7296;DHT22;40758;54.038;11.684;2022-07-25T12:13:01;34.00;99.90
7296;DHT22;40758;54.038;11.684;2022-07-25T12:15:34;34.10;99.90
7296;DHT22;40758;54.038;11.684;2022-07-25T12:18:07;34.40;99.90
7296;DHT22;40758;54.038;11.684;2022-07-25T12:20:41;34.80;99.90
7296;DHT22;40758;54.038;11.684;2022-07-25T12:23:12;35.10;99.90
7296;DHT22;40758;54.038;11.684;2022-07-25T12:25:48;35.30;99.90
7296;DHT22;40758;54.038;11.684;2022-07-25T12:28:20;35.50;99.90
7296;DHT22;40758;54.038;11.684;2022-07-25T12:30:52;35.70;99.90
7296;DHT22;40758;54.038;11.684;2022-07-25T12:33:23;35.40;99.90
7296;DHT22;40758;54.038;11.684;2022-07-25T12:35:52;34.80;99.90
7296;DHT22;40758;54.038;11.684;2022-07-25T12:38:21;34.60;99.90
7296;DHT22;40758;54.038;11.684;2022-07-25T12:40:51;34.50;99.90
7296;DHT22;40758;54.038;11.684;2022-07-25T12:43:25;34.20;99.90
7296;DHT22;40758;54.038;11.684;2022-07-25T12:45:54;33.90;99.90
7296;DHT22;40758;54.038;11.684;2022-07-25T12:48:24;33.70;99.90
7296;DHT22;40758;54.038;11.684;2022-07-25T12:50:54;33.40;99.90
7296;DHT22;40758;54.038;11.684;2022-07-25T12:53:23;33.10;99.90
7296;DHT22;40758;54.038;11.684;2022-07-25T12:55:52;32.90;99.90
7296;DHT22;40758;54.038;11.684;2022-07-25T12:58:25;32.80;99.90
7296;DHT22;40758;54.038;11.684;2022-07-25T13:00:54;32.60;99.90
7296;DHT22;40758;54.038;11.684;2022-07-25T13:03:29;32.60;99.90
7296;DHT22;40758;54.038;11.684;2022-07-25T13:05:58;32.60;99.90
7296;DHT22;40758;54.038;11.684;2022-07-25T13:08:29;32.60;99.90
7296;DHT22;40758;54.038;11.684;2022-07-25T13:10:59;32.60;99.90
7296;DHT22;40758;54.038;11.684;2022-07-25T13:13:36;32.50;99.90
7296;DHT22;40758;54.038;11.684;2022-07-25T13:16:06;32.50;99.90
7296;DHT22;40758;54.038;11.684;2022-07-25T13:18:35;32.60;99.90
7296;DHT22;40758;54.038;11.684;2022-07-25T13:21:04;32.40;99.90
7296;DHT22;40758;54.038;11.684;2022-07-25T13:23:36;32.40;99.90
7296;DHT22;40758;54.038;11.684;2022-07-25T13:26:07;32.50;99.90
7296;DHT22;40758;54.038;11.684;2022-07-25T13:28:38;32.60;99.90
7296;DHT22;40758;54.038;11.684;2022-07-25T13:31:09;32.70;99.90
7296;DHT22;40758;54.038;11.684;2022-07-25T13:33:39;32.90;99.90
7296;DHT22;40758;54.038;11.684;2022-07-25T13:36:08;33.40;99.90
7296;DHT22;40758;54.038;11.684;2022-07-25T13:38:37;34.00;99.90
7296;DHT22;40758;54.038;11.684;2022-07-25T13:41:10;34.80;99.90
7296;DHT22;40758;54.038;11.684;2022-07-25T13:43:42;35.80;99.90
7296;DHT22;40758;54.038;11.684;2022-07-25T13:46:14;36.60;99.90
7296;DHT22;40758;54.038;11.684;2022-07-25T13:48:43;36.90;99.90
7296;DHT22;40758;54.038;11.684;2022-07-25T13:51:12;36.50;99.90
7296;DHT22;40758;54.038;11.684;2022-07-25T13:53:41;35.40;99.90
7296;DHT22;40758;54.038;11.684;2022-07-25T13:56:14;35.30;99.90
7296;DHT22;40758;54.038;11.684;2022-07-25T13:58:48;34.90;99.90
7296;DHT22;40758;54.038;11.684;2022-07-25T14:01:17;34.90;99.90
7296;DHT22;40758;54.038;11.684;2022-07-25T14:03:46;35.30;99.90
7296;DHT22;40758;54.038;11.684;2022-07-25T14:06:15;35.40;99.90
7296;DHT22;40758;54.038;11.684;2022-07-25T14:08:45;36.00;99.90
7296;DHT22;40758;54.038;11.684;2022-07-25T14:11:14;36.70;99.90
7296;DHT22;40758;54.038;11.684;2022-07-25T14:13:42;36.70;99.90
7296;DHT22;40758;54.038;11.684;2022-07-25T14:16:14;36.30;99.90
7296;DHT22;40758;54.038;11.684;2022-07-25T14:18:45;35.70;99.90
7296;DHT22;40758;54.038;11.684;2022-07-25T14:21:14;35.10;99.90
7296;DHT22;40758;54.038;11.684;2022-07-25T14:23:43;34.20;99.90
7296;DHT22;40758;54.038;11.684;2022-07-25T14:26:12;33.70;99.90
7296;DHT22;40758;54.038;11.684;2022-07-25T14:28:50;33.30;99.90
7296;DHT22;40758;54.038;11.684;2022-07-25T14:31:21;33.00;99.90
7296;DHT22;40758;54.038;11.684;2022-07-25T14:33:53;32.60;99.90
7296;DHT22;40758;54.038;11.684;2022-07-25T14:36:22;32.40;99.90
7296;DHT22;40758;54.038;11.684;2022-07-25T14:38:51;32.50;99.90
7296;DHT22;40758;54.038;11.684;2022-07-25T14:41:20;32.40;99.90
7296;DHT22;40758;54.038;11.684;2022-07-25T14:43:52;32.20;99.90
7296;DHT22;40758;54.038;11.684;2022-07-25T14:46:27;32.10;99.90
7296;DHT22;40758;54.038;11.684;2022-07-25T14:48:57;31.90;99.90
7296;DHT22;40758;54.038;11.684;2022-07-25T14:51:27;31.70;99.90
7296;DHT22;40758;54.038;11.684;2022-07-25T14:53:57;31.50;99.90
7296;DHT22;40758;54.038;11.684;2022-07-25T14:56:27;31.40;99.90
7296;DHT22;40758;54.038;11.684;2022-07-25T14:58:57;31.20;99.90
7296;DHT22;40758;54.038;11.684;2022-07-25T15:01:27;30.90;99.90
7296;DHT22;40758;54.038;11.684;2022-07-25T15:03:57;30.70;99.90
7296;DHT22;40758;54.038;11.684;2022-07-25T15:06:32;30.60;99.90
7296;DHT22;40758;54.038;11.684;2022-07-25T15:09:01;30.40;99.90
7296;DHT22;40758;54.038;11.684;2022-07-25T15:11:30;30.40;99.90
7296;DHT22;40758;54.038;11.684;2022-07-25T15:13:59;30.40;99.90
7296;DHT22;40758;54.038;11.684;2022-07-25T15:16:30;30.30;99.90
7296;DHT22;40758;54.038;11.684;2022-07-25T15:19:00;30.20;99.90
7296;DHT22;40758;54.038;11.684;2022-07-25T15:21:43;30.10;99.90
7296;DHT22;40758;54.038;11.684;2022-07-25T15:24:12;26.70;99.90
7296;DHT22;40758;54.038;11.684;2022-07-25T15:26:42;24.10;99.90
7296;DHT22;40758;54.038;11.684;2022-07-25T15:29:11;22.70;99.90
7296;DHT22;40758;54.038;11.684;2022-07-25T15:31:48;22.30;99.90
7296;DHT22;40758;54.038;11.684;2022-07-25T15:34:18;22.50;99.90
7296;DHT22;40758;54.038;11.684;2022-07-25T15:36:47;22.60;99.90
7296;DHT22;40758;54.038;11.684;2022-07-25T15:39:16;22.90;99.90
7296;DHT22;40758;54.038;11.684;2022-07-25T15:41:45;23.30;99.90
7296;DHT22;40758;54.038;11.684;2022-07-25T15:44:15;23.90;99.90
7296;DHT22;40758;54.038;11.684;2022-07-25T15:46:48;24.30;99.90
7296;DHT22;40758;54.038;11.684;2022-07-25T15:49:17;24.80;99.90
7296;DHT22;40758;54.038;11.684;2022-07-25T15:51:48;25.10;99.90
7296;DHT22;40758;54.038;11.684;2022-07-25T15:54:17;25.20;99.90
7296;DHT22;40758;54.038;11.684;2022-07-25T15:56:52;24.90;99.90